sensor_id;sensor_type;location;lat;lon;timestamp;P1;durP1;ratioP1;P2;durP2;ratioP2
40837;SDS011;29632;49.168;9.848;2022-08-27T00:00:15;7.47;;;4.60;;
40837;SDS011;29632;49.168;9.848;2022-08-27T00:02:44;8.60;;;4.23;;
40837;SDS011;29632;49.168;9.848;2022-08-27T00:05:11;7.50;;;5.10;;
40837;SDS011;29632;49.168;9.848;2022-08-27T00:07:39;7.63;;;5.20;;
40837;SDS011;29632;49.168;9.848;2022-08-27T00:10:06;7.47;;;5.47;;
40837;SDS011;29632;49.168;9.848;2022-08-27T00:12:34;8.93;;;4.60;;
40837;SDS011;29632;49.168;9.848;2022-08-27T00:15:01;6.87;;;4.47;;
40837;SDS011;29632;49.168;9.848;2022-08-27T00:17:29;9.10;;;5.68;;
40837;SDS011;29632;49.168;9.848;2022-08-27T00:19:54;9.10;;;5.45;;
40837;SDS011;29632;49.168;9.848;2022-08-27T00:22:20;8.43;;;4.93;;
40837;SDS011;29632;49.168;9.848;2022-08-27T00:24:46;8.40;;;4.72;;
40837;SDS011;29632;49.168;9.848;2022-08-27T00:27:12;8.27;;;4.88;;
40837;SDS011;29632;49.168;9.848;2022-08-27T00:29:38;8.85;;;5.35;;
40837;SDS011;29632;49.168;9.848;2022-08-27T00:32:03;8.63;;;5.03;;
40837;SDS011;29632;49.168;9.848;2022-08-27T00:34:29;8.95;;;5.35;;
40837;SDS011;29632;49.168;9.848;2022-08-27T00:36:55;8.82;;;5.68;;
40837;SDS011;29632;49.168;9.848;2022-08-27T00:39:21;7.43;;;5.40;;
40837;SDS011;29632;49.168;9.848;2022-08-27T00:41:47;9.00;;;5.17;;
40837;SDS011;29632;49.168;9.848;2022-08-27T00:44:13;10.02;;;5.78;;
40837;SDS011;29632;49.168;9.848;2022-08-27T00:52:16;7.80;;;4.80;;
40837;SDS011;29632;49.168;9.848;2022-08-27T00:54:46;7.00;;;4.67;;
40837;SDS011;29632;49.168;9.848;2022-08-27T00:57:15;6.50;;;4.20;;
40837;SDS011;29632;49.168;9.848;2022-08-27T00:59:42;7.43;;;4.53;;
40837;SDS011;29632;49.168;9.848;2022-08-27T01:02:09;8.07;;;4.70;;
40837;SDS011;29632;49.168;9.848;2022-08-27T01:04:46;7.15;;;5.10;;
40837;SDS011;29632;49.168;9.848;2022-08-27T01:07:47;7.38;;;4.43;;
40837;SDS011;29632;49.168;9.848;2022-08-27T01:10:16;7.30;;;4.72;;
40837;SDS011;29632;49.168;9.848;2022-08-27T01:12:45;7.60;;;5.00;;
40837;SDS011;29632;49.168;9.848;2022-08-27T01:15:14;7.85;;;5.65;;
40837;SDS011;29632;49.168;9.848;2022-08-27T01:17:43;11.13;;;5.70;;
40837;SDS011;29632;49.168;9.848;2022-08-27T01:20:22;7.50;;;4.93;;
40837;SDS011;29632;49.168;9.848;2022-08-27T01:25:58;6.70;;;4.53;;
40837;SDS011;29632;49.168;9.848;2022-08-27T01:28:26;7.07;;;4.63;;
40837;SDS011;29632;49.168;9.848;2022-08-27T01:30:55;6.65;;;4.65;;
40837;SDS011;29632;49.168;9.848;2022-08-27T01:33:20;8.60;;;4.78;;
40837;SDS011;29632;49.168;9.848;2022-08-27T01:35:48;6.83;;;4.93;;
40837;SDS011;29632;49.168;9.848;2022-08-27T01:38:16;8.00;;;4.97;;
40837;SDS011;29632;49.168;9.848;2022-08-27T01:40:44;7.97;;;5.50;;
40837;SDS011;29632;49.168;9.848;2022-08-27T01:43:11;8.57;;;5.50;;
40837;SDS011;29632;49.168;9.848;2022-08-27T01:45:38;5.53;;;4.40;;
40837;SDS011;29632;49.168;9.848;2022-08-27T01:48:08;8.67;;;5.20;;
40837;SDS011;29632;49.168;9.848;2022-08-27T01:50:37;8.93;;;5.50;;
40837;SDS011;29632;49.168;9.848;2022-08-27T01:53:06;9.27;;;5.50;;
40837;SDS011;29632;49.168;9.848;2022-08-27T01:55:38;8.73;;;6.10;;
40837;SDS011;29632;49.168;9.848;2022-08-27T01:58:06;9.30;;;5.35;;
40837;SDS011;29632;49.168;9.848;2022-08-27T02:00:33;9.17;;;6.40;;
40837;SDS011;29632;49.168;9.848;2022-08-27T02:03:03;10.27;;;5.65;;
40837;SDS011;29632;49.168;9.848;2022-08-27T02:05:31;15.40;;;5.90;;
40837;SDS011;29632;49.168;9.848;2022-08-27T02:07:58;8.02;;;5.72;;
40837;SDS011;29632;49.168;9.848;2022-08-27T02:10:29;7.87;;;5.30;;
40837;SDS011;29632;49.168;9.848;2022-08-27T02:13:00;6.80;;;5.30;;
40837;SDS011;29632;49.168;9.848;2022-08-27T02:15:27;8.20;;;5.80;;
40837;SDS011;29632;49.168;9.848;2022-08-27T02:17:53;6.30;;;5.17;;
40837;SDS011;29632;49.168;9.848;2022-08-27T02:20:20;8.45;;;4.80;;
40837;SDS011;29632;49.168;9.848;2022-08-27T02:22:46;7.93;;;5.13;;
40837;SDS011;29632;49.168;9.848;2022-08-27T02:25:13;11.53;;;5.17;;
40837;SDS011;29632;49.168;9.848;2022-08-27T02:27:43;6.55;;;4.43;;
40837;SDS011;29632;49.168;9.848;2022-08-27T02:30:10;9.20;;;4.93;;
40837;SDS011;29632;49.168;9.848;2022-08-27T02:32:38;7.18;;;5.28;;
40837;SDS011;29632;49.168;9.848;2022-08-27T02:35:04;6.82;;;5.15;;
40837;SDS011;29632;49.168;9.848;2022-08-27T02:37:31;8.77;;;5.47;;
40837;SDS011;29632;49.168;9.848;2022-08-27T02:39:57;7.27;;;4.90;;
40837;SDS011;29632;49.168;9.848;2022-08-27T02:42:23;8.93;;;5.33;;
40837;SDS011;29632;49.168;9.848;2022-08-27T02:44:49;8.30;;;5.17;;
40837;SDS011;29632;49.168;9.848;2022-08-27T02:47:15;9.73;;;5.07;;
40837;SDS011;29632;49.168;9.848;2022-08-27T02:49:41;8.53;;;5.50;;
40837;SDS011;29632;49.168;9.848;2022-08-27T02:52:08;9.17;;;5.50;;
40837;SDS011;29632;49.168;9.848;2022-08-27T02:54:34;7.83;;;5.20;;
40837;SDS011;29632;49.168;9.848;2022-08-27T02:57:00;6.70;;;4.93;;
40837;SDS011;29632;49.168;9.848;2022-08-27T02:59:26;7.50;;;5.20;;
40837;SDS011;29632;49.168;9.848;2022-08-27T03:01:52;7.10;;;5.20;;
40837;SDS011;29632;49.168;9.848;2022-08-27T03:04:17;7.40;;;5.03;;
40837;SDS011;29632;49.168;9.848;2022-08-27T03:06:44;7.60;;;5.50;;
40837;SDS011;29632;49.168;9.848;2022-08-27T03:09:11;7.23;;;5.30;;
40837;SDS011;29632;49.168;9.848;2022-08-27T03:11:37;11.00;;;5.17;;
40837;SDS011;29632;49.168;9.848;2022-08-27T03:14:03;8.67;;;5.77;;
40837;SDS011;29632;49.168;9.848;2022-08-27T03:16:32;9.17;;;5.30;;
40837;SDS011;29632;49.168;9.848;2022-08-27T03:19:00;7.57;;;5.70;;
40837;SDS011;29632;49.168;9.848;2022-08-27T03:21:26;9.17;;;6.37;;
40837;SDS011;29632;49.168;9.848;2022-08-27T03:23:52;11.20;;;5.50;;
40837;SDS011;29632;49.168;9.848;2022-08-27T03:26:18;10.70;;;5.83;;
40837;SDS011;29632;49.168;9.848;2022-08-27T03:28:45;7.90;;;6.13;;
40837;SDS011;29632;49.168;9.848;2022-08-27T03:31:15;9.00;;;5.87;;
40837;SDS011;29632;49.168;9.848;2022-08-27T03:33:50;11.20;;;7.37;;
40837;SDS011;29632;49.168;9.848;2022-08-27T03:36:26;9.93;;;7.10;;
40837;SDS011;29632;49.168;9.848;2022-08-27T03:38:54;9.73;;;6.93;;
40837;SDS011;29632;49.168;9.848;2022-08-27T03:41:21;9.60;;;6.43;;
40837;SDS011;29632;49.168;9.848;2022-08-27T03:43:48;10.47;;;6.83;;
40837;SDS011;29632;49.168;9.848;2022-08-27T03:46:16;9.97;;;7.10;;
40837;SDS011;29632;49.168;9.848;2022-08-27T03:48:44;11.90;;;7.70;;
40837;SDS011;29632;49.168;9.848;2022-08-27T03:51:12;10.13;;;7.80;;
40837;SDS011;29632;49.168;9.848;2022-08-27T03:53:40;13.17;;;8.13;;
40837;SDS011;29632;49.168;9.848;2022-08-27T03:56:07;10.00;;;7.38;;
40837;SDS011;29632;49.168;9.848;2022-08-27T03:58:34;11.07;;;7.72;;
40837;SDS011;29632;49.168;9.848;2022-08-27T04:01:01;10.88;;;7.78;;
40837;SDS011;29632;49.168;9.848;2022-08-27T04:03:29;11.90;;;8.43;;
40837;SDS011;29632;49.168;9.848;2022-08-27T04:05:55;15.03;;;9.10;;
40837;SDS011;29632;49.168;9.848;2022-08-27T04:08:22;12.23;;;9.00;;
40837;SDS011;29632;49.168;9.848;2022-08-27T04:10:49;15.77;;;10.87;;
40837;SDS011;29632;49.168;9.848;2022-08-27T04:13:16;14.00;;;9.80;;
40837;SDS011;29632;49.168;9.848;2022-08-27T04:15:43;13.77;;;10.40;;
40837;SDS011;29632;49.168;9.848;2022-08-27T04:18:10;14.67;;;11.23;;
40837;SDS011;29632;49.168;9.848;2022-08-27T04:20:39;16.70;;;11.73;;
40837;SDS011;29632;49.168;9.848;2022-08-27T04:23:05;16.33;;;11.47;;
40837;SDS011;29632;49.168;9.848;2022-08-27T04:25:31;15.40;;;11.53;;
40837;SDS011;29632;49.168;9.848;2022-08-27T04:27:57;16.13;;;11.17;;
40837;SDS011;29632;49.168;9.848;2022-08-27T04:30:23;16.83;;;10.67;;
40837;SDS011;29632;49.168;9.848;2022-08-27T04:32:49;16.83;;;11.37;;
40837;SDS011;29632;49.168;9.848;2022-08-27T04:35:14;15.97;;;12.33;;
40837;SDS011;29632;49.168;9.848;2022-08-27T04:37:40;15.43;;;11.27;;
40837;SDS011;29632;49.168;9.848;2022-08-27T04:40:07;20.90;;;12.93;;
40837;SDS011;29632;49.168;9.848;2022-08-27T04:42:34;17.50;;;12.00;;
40837;SDS011;29632;49.168;9.848;2022-08-27T04:45:00;19.42;;;13.25;;
40837;SDS011;29632;49.168;9.848;2022-08-27T04:47:27;19.40;;;13.60;;
40837;SDS011;29632;49.168;9.848;2022-08-27T04:49:53;20.85;;;14.68;;
40837;SDS011;29632;49.168;9.848;2022-08-27T04:52:19;22.73;;;16.03;;
40837;SDS011;29632;49.168;9.848;2022-08-27T04:54:45;21.93;;;13.97;;
40837;SDS011;29632;49.168;9.848;2022-08-27T04:57:11;20.00;;;15.40;;
40837;SDS011;29632;49.168;9.848;2022-08-27T04:59:37;20.60;;;14.33;;
40837;SDS011;29632;49.168;9.848;2022-08-27T05:02:03;23.27;;;15.77;;
40837;SDS011;29632;49.168;9.848;2022-08-27T05:04:33;28.60;;;18.40;;
40837;SDS011;29632;49.168;9.848;2022-08-27T05:07:04;22.83;;;16.57;;
40837;SDS011;29632;49.168;9.848;2022-08-27T05:09:31;24.17;;;16.40;;
40837;SDS011;29632;49.168;9.848;2022-08-27T05:11:58;24.10;;;17.03;;
40837;SDS011;29632;49.168;9.848;2022-08-27T05:14:25;23.63;;;15.93;;
40837;SDS011;29632;49.168;9.848;2022-08-27T05:16:54;24.53;;;17.17;;
40837;SDS011;29632;49.168;9.848;2022-08-27T05:19:22;21.90;;;15.40;;
40837;SDS011;29632;49.168;9.848;2022-08-27T05:21:48;26.83;;;17.40;;
40837;SDS011;29632;49.168;9.848;2022-08-27T05:24:17;23.05;;;16.33;;
40837;SDS011;29632;49.168;9.848;2022-08-27T05:26:45;23.20;;;17.27;;
40837;SDS011;29632;49.168;9.848;2022-08-27T05:29:11;27.00;;;16.60;;
40837;SDS011;29632;49.168;9.848;2022-08-27T05:31:38;25.55;;;16.85;;
40837;SDS011;29632;49.168;9.848;2022-08-27T05:34:04;21.20;;;15.63;;
40837;SDS011;29632;49.168;9.848;2022-08-27T05:36:31;23.17;;;18.13;;
40837;SDS011;29632;49.168;9.848;2022-08-27T05:38:59;22.10;;;17.00;;
40837;SDS011;29632;49.168;9.848;2022-08-27T05:41:28;25.02;;;17.42;;
40837;SDS011;29632;49.168;9.848;2022-08-27T05:43:56;23.52;;;16.33;;
40837;SDS011;29632;49.168;9.848;2022-08-27T05:46:25;23.30;;;17.05;;
40837;SDS011;29632;49.168;9.848;2022-08-27T05:48:54;21.42;;;16.15;;
40837;SDS011;29632;49.168;9.848;2022-08-27T05:51:24;23.90;;;18.30;;
40837;SDS011;29632;49.168;9.848;2022-08-27T05:53:58;24.43;;;17.03;;
40837;SDS011;29632;49.168;9.848;2022-08-27T05:56:29;20.30;;;15.93;;
40837;SDS011;29632;49.168;9.848;2022-08-27T05:58:57;23.37;;;17.77;;
40837;SDS011;29632;49.168;9.848;2022-08-27T06:01:45;25.60;;;19.65;;
40837;SDS011;29632;49.168;9.848;2022-08-27T06:04:14;24.15;;;18.52;;
40837;SDS011;29632;49.168;9.848;2022-08-27T06:06:41;23.75;;;19.52;;
40837;SDS011;29632;49.168;9.848;2022-08-27T06:09:09;25.83;;;19.05;;
40837;SDS011;29632;49.168;9.848;2022-08-27T06:11:38;24.50;;;18.17;;
40837;SDS011;29632;49.168;9.848;2022-08-27T06:14:04;25.25;;;19.63;;
40837;SDS011;29632;49.168;9.848;2022-08-27T06:16:32;23.27;;;18.58;;
40837;SDS011;29632;49.168;9.848;2022-08-27T06:18:59;21.33;;;19.02;;
40837;SDS011;29632;49.168;9.848;2022-08-27T06:21:25;25.67;;;20.50;;
40837;SDS011;29632;49.168;9.848;2022-08-27T06:23:52;23.77;;;20.47;;
40837;SDS011;29632;49.168;9.848;2022-08-27T06:26:19;23.23;;;18.52;;
40837;SDS011;29632;49.168;9.848;2022-08-27T06:28:46;27.70;;;19.98;;
40837;SDS011;29632;49.168;9.848;2022-08-27T06:31:13;23.60;;;19.27;;
40837;SDS011;29632;49.168;9.848;2022-08-27T06:33:42;19.90;;;17.15;;
40837;SDS011;29632;49.168;9.848;2022-08-27T06:36:11;21.08;;;17.73;;
40837;SDS011;29632;49.168;9.848;2022-08-27T06:38:40;25.35;;;18.88;;
40837;SDS011;29632;49.168;9.848;2022-08-27T06:41:10;21.35;;;18.60;;
40837;SDS011;29632;49.168;9.848;2022-08-27T06:43:38;20.48;;;17.67;;
40837;SDS011;29632;49.168;9.848;2022-08-27T06:46:05;23.52;;;18.20;;
40837;SDS011;29632;49.168;9.848;2022-08-27T06:48:34;22.80;;;18.27;;
40837;SDS011;29632;49.168;9.848;2022-08-27T06:51:05;24.33;;;17.70;;
40837;SDS011;29632;49.168;9.848;2022-08-27T06:53:43;21.17;;;15.82;;
40837;SDS011;29632;49.168;9.848;2022-08-27T06:56:14;21.08;;;16.35;;
40837;SDS011;29632;49.168;9.848;2022-08-27T06:58:41;18.13;;;15.57;;
40837;SDS011;29632;49.168;9.848;2022-08-27T07:01:12;18.55;;;15.13;;
40837;SDS011;29632;49.168;9.848;2022-08-27T07:03:41;15.73;;;13.25;;
40837;SDS011;29632;49.168;9.848;2022-08-27T07:06:08;18.70;;;14.30;;
40837;SDS011;29632;49.168;9.848;2022-08-27T07:08:36;18.60;;;13.35;;
40837;SDS011;29632;49.168;9.848;2022-08-27T07:11:03;17.65;;;13.70;;
40837;SDS011;29632;49.168;9.848;2022-08-27T07:13:30;17.20;;;12.43;;
40837;SDS011;29632;49.168;9.848;2022-08-27T07:15:56;16.90;;;13.43;;
40837;SDS011;29632;49.168;9.848;2022-08-27T07:18:22;16.42;;;12.27;;
40837;SDS011;29632;49.168;9.848;2022-08-27T07:20:51;16.08;;;12.35;;
40837;SDS011;29632;49.168;9.848;2022-08-27T07:23:18;15.75;;;11.73;;
40837;SDS011;29632;49.168;9.848;2022-08-27T07:25:44;15.40;;;11.07;;
40837;SDS011;29632;49.168;9.848;2022-08-27T07:28:10;11.75;;;9.90;;
40837;SDS011;29632;49.168;9.848;2022-08-27T07:30:36;10.75;;;8.95;;
40837;SDS011;29632;49.168;9.848;2022-08-27T07:33:02;12.25;;;9.13;;
40837;SDS011;29632;49.168;9.848;2022-08-27T07:35:28;10.32;;;8.45;;
40837;SDS011;29632;49.168;9.848;2022-08-27T07:37:55;11.27;;;7.30;;
40837;SDS011;29632;49.168;9.848;2022-08-27T07:40:22;8.85;;;7.60;;
40837;SDS011;29632;49.168;9.848;2022-08-27T07:42:48;10.02;;;8.10;;
40837;SDS011;29632;49.168;9.848;2022-08-27T07:45:32;11.13;;;8.63;;
40837;SDS011;29632;49.168;9.848;2022-08-27T07:47:59;10.50;;;8.40;;
40837;SDS011;29632;49.168;9.848;2022-08-27T07:50:24;12.65;;;8.20;;
40837;SDS011;29632;49.168;9.848;2022-08-27T07:52:50;9.35;;;7.57;;
40837;SDS011;29632;49.168;9.848;2022-08-27T07:55:17;10.43;;;7.68;;
40837;SDS011;29632;49.168;9.848;2022-08-27T07:57:43;10.57;;;8.45;;
40837;SDS011;29632;49.168;9.848;2022-08-27T08:00:11;11.15;;;8.45;;
40837;SDS011;29632;49.168;9.848;2022-08-27T08:02:38;11.60;;;7.85;;
40837;SDS011;29632;49.168;9.848;2022-08-27T08:05:06;9.50;;;7.82;;
40837;SDS011;29632;49.168;9.848;2022-08-27T08:07:33;12.40;;;8.93;;
40837;SDS011;29632;49.168;9.848;2022-08-27T08:10:02;12.05;;;8.52;;
40837;SDS011;29632;49.168;9.848;2022-08-27T08:12:37;9.27;;;7.47;;
40837;SDS011;29632;49.168;9.848;2022-08-27T08:15:05;10.30;;;7.53;;
40837;SDS011;29632;49.168;9.848;2022-08-27T08:17:34;8.65;;;7.32;;
40837;SDS011;29632;49.168;9.848;2022-08-27T08:20:02;9.52;;;7.38;;
40837;SDS011;29632;49.168;9.848;2022-08-27T08:22:30;10.63;;;8.83;;
40837;SDS011;29632;49.168;9.848;2022-08-27T08:24:56;11.15;;;8.32;;
40837;SDS011;29632;49.168;9.848;2022-08-27T08:27:22;9.68;;;7.88;;
40837;SDS011;29632;49.168;9.848;2022-08-27T08:29:48;11.57;;;8.70;;
40837;SDS011;29632;49.168;9.848;2022-08-27T08:32:15;11.00;;;8.00;;
40837;SDS011;29632;49.168;9.848;2022-08-27T08:34:41;11.35;;;8.68;;
40837;SDS011;29632;49.168;9.848;2022-08-27T08:37:08;9.07;;;7.65;;
40837;SDS011;29632;49.168;9.848;2022-08-27T08:39:35;10.63;;;7.55;;
40837;SDS011;29632;49.168;9.848;2022-08-27T08:42:02;10.35;;;8.48;;
40837;SDS011;29632;49.168;9.848;2022-08-27T08:44:32;9.13;;;7.68;;
40837;SDS011;29632;49.168;9.848;2022-08-27T08:52:53;9.80;;;8.27;;
40837;SDS011;29632;49.168;9.848;2022-08-27T09:00:49;9.73;;;7.72;;
40837;SDS011;29632;49.168;9.848;2022-08-27T09:03:20;14.35;;;6.68;;
40837;SDS011;29632;49.168;9.848;2022-08-27T09:05:47;9.90;;;6.50;;
40837;SDS011;29632;49.168;9.848;2022-08-27T09:08:33;7.32;;;5.90;;
40837;SDS011;29632;49.168;9.848;2022-08-27T09:16:40;8.25;;;6.13;;
40837;SDS011;29632;49.168;9.848;2022-08-27T09:19:07;7.63;;;6.03;;
40837;SDS011;29632;49.168;9.848;2022-08-27T09:21:44;8.48;;;6.80;;
40837;SDS011;29632;49.168;9.848;2022-08-27T09:24:27;7.40;;;6.35;;
40837;SDS011;29632;49.168;9.848;2022-08-27T09:27:09;8.60;;;6.47;;
40837;SDS011;29632;49.168;9.848;2022-08-27T09:29:45;7.70;;;6.90;;
40837;SDS011;29632;49.168;9.848;2022-08-27T09:32:20;8.60;;;7.05;;
40837;SDS011;29632;49.168;9.848;2022-08-27T09:34:59;8.40;;;6.95;;
40837;SDS011;29632;49.168;9.848;2022-08-27T09:37:30;8.48;;;7.03;;
40837;SDS011;29632;49.168;9.848;2022-08-27T09:43:04;8.75;;;6.00;;
40837;SDS011;29632;49.168;9.848;2022-08-27T09:45:54;7.78;;;6.25;;
40837;SDS011;29632;49.168;9.848;2022-08-27T09:48:35;7.40;;;5.63;;
40837;SDS011;29632;49.168;9.848;2022-08-27T09:51:04;8.95;;;6.90;;
40837;SDS011;29632;49.168;9.848;2022-08-27T09:53:37;8.18;;;6.10;;
40837;SDS011;29632;49.168;9.848;2022-08-27T09:56:26;7.68;;;5.97;;
40837;SDS011;29632;49.168;9.848;2022-08-27T09:59:01;8.02;;;6.40;;
40837;SDS011;29632;49.168;9.848;2022-08-27T10:02:02;7.35;;;6.07;;
40837;SDS011;29632;49.168;9.848;2022-08-27T10:04:48;7.40;;;5.60;;
40837;SDS011;29632;49.168;9.848;2022-08-27T10:07:25;8.25;;;5.85;;
40837;SDS011;29632;49.168;9.848;2022-08-27T10:10:20;9.18;;;6.22;;
40837;SDS011;29632;49.168;9.848;2022-08-27T10:15:23;8.43;;;6.22;;
40837;SDS011;29632;49.168;9.848;2022-08-27T10:20:47;7.13;;;5.50;;
40837;SDS011;29632;49.168;9.848;2022-08-27T10:30:11;7.90;;;6.03;;
40837;SDS011;29632;49.168;9.848;2022-08-27T10:35:45;9.20;;;6.40;;
40837;SDS011;29632;49.168;9.848;2022-08-27T10:38:39;8.63;;;6.63;;
40837;SDS011;29632;49.168;9.848;2022-08-27T10:47:08;8.98;;;6.35;;
40837;SDS011;29632;49.168;9.848;2022-08-27T10:52:28;9.35;;;7.10;;
40837;SDS011;29632;49.168;9.848;2022-08-27T10:55:13;7.97;;;6.18;;
40837;SDS011;29632;49.168;9.848;2022-08-27T11:04:05;10.48;;;6.75;;
40837;SDS011;29632;49.168;9.848;2022-08-27T11:06:56;10.20;;;6.60;;
40837;SDS011;29632;49.168;9.848;2022-08-27T11:09:27;8.50;;;6.65;;
40837;SDS011;29632;49.168;9.848;2022-08-27T11:12:20;8.88;;;5.97;;
40837;SDS011;29632;49.168;9.848;2022-08-27T11:14:59;8.75;;;6.90;;
40837;SDS011;29632;49.168;9.848;2022-08-27T11:20:35;8.20;;;5.57;;
40837;SDS011;29632;49.168;9.848;2022-08-27T11:23:11;8.88;;;5.82;;
40837;SDS011;29632;49.168;9.848;2022-08-27T11:28:41;7.20;;;4.78;;
40837;SDS011;29632;49.168;9.848;2022-08-27T11:31:23;10.75;;;6.07;;
40837;SDS011;29632;49.168;9.848;2022-08-27T11:43:05;8.00;;;5.45;;
40837;SDS011;29632;49.168;9.848;2022-08-27T11:45:36;6.70;;;5.28;;
40837;SDS011;29632;49.168;9.848;2022-08-27T11:48:17;8.20;;;5.93;;
40837;SDS011;29632;49.168;9.848;2022-08-27T11:50:56;6.70;;;5.50;;
40837;SDS011;29632;49.168;9.848;2022-08-27T11:53:59;8.43;;;5.55;;
40837;SDS011;29632;49.168;9.848;2022-08-27T11:59:08;7.25;;;4.80;;
40837;SDS011;29632;49.168;9.848;2022-08-27T12:01:56;8.88;;;6.65;;
40837;SDS011;29632;49.168;9.848;2022-08-27T12:04:36;6.20;;;4.97;;
40837;SDS011;29632;49.168;9.848;2022-08-27T12:07:06;7.10;;;5.88;;
40837;SDS011;29632;49.168;9.848;2022-08-27T12:16:13;6.68;;;4.88;;
40837;SDS011;29632;49.168;9.848;2022-08-27T12:24:46;8.90;;;5.60;;
40837;SDS011;29632;49.168;9.848;2022-08-27T12:38:18;7.72;;;5.35;;
40837;SDS011;29632;49.168;9.848;2022-08-27T12:40:50;8.85;;;5.53;;
40837;SDS011;29632;49.168;9.848;2022-08-27T12:43:23;8.05;;;5.38;;
40837;SDS011;29632;49.168;9.848;2022-08-27T12:46:02;7.47;;;5.22;;
40837;SDS011;29632;49.168;9.848;2022-08-27T12:54:04;8.13;;;4.97;;
40837;SDS011;29632;49.168;9.848;2022-08-27T12:56:51;8.93;;;6.30;;
40837;SDS011;29632;49.168;9.848;2022-08-27T13:00:00;7.40;;;5.82;;
40837;SDS011;29632;49.168;9.848;2022-08-27T13:02:51;9.50;;;6.43;;
40837;SDS011;29632;49.168;9.848;2022-08-27T13:05:46;8.73;;;4.75;;
40837;SDS011;29632;49.168;9.848;2022-08-27T13:08:51;9.23;;;5.10;;
40837;SDS011;29632;49.168;9.848;2022-08-27T13:11:08;6.82;;;4.55;;
40837;SDS011;29632;49.168;9.848;2022-08-27T13:13:49;6.53;;;5.05;;
40837;SDS011;29632;49.168;9.848;2022-08-27T13:16:16;8.98;;;6.22;;
40837;SDS011;29632;49.168;9.848;2022-08-27T13:18:48;6.38;;;5.03;;
40837;SDS011;29632;49.168;9.848;2022-08-27T13:21:25;7.88;;;5.30;;
40837;SDS011;29632;49.168;9.848;2022-08-27T13:26:31;8.68;;;5.43;;
40837;SDS011;29632;49.168;9.848;2022-08-27T13:29:01;7.68;;;4.78;;
40837;SDS011;29632;49.168;9.848;2022-08-27T13:31:29;7.88;;;5.25;;
40837;SDS011;29632;49.168;9.848;2022-08-27T13:33:58;8.93;;;4.70;;
40837;SDS011;29632;49.168;9.848;2022-08-27T13:36:30;9.20;;;5.20;;
40837;SDS011;29632;49.168;9.848;2022-08-27T13:39:15;7.07;;;5.18;;
40837;SDS011;29632;49.168;9.848;2022-08-27T13:41:41;8.80;;;4.85;;
40837;SDS011;29632;49.168;9.848;2022-08-27T13:44:13;8.05;;;4.90;;
40837;SDS011;29632;49.168;9.848;2022-08-27T13:46:49;5.80;;;4.70;;
40837;SDS011;29632;49.168;9.848;2022-08-27T13:49:24;12.85;;;5.60;;
40837;SDS011;29632;49.168;9.848;2022-08-27T13:52:02;7.15;;;4.88;;
40837;SDS011;29632;49.168;9.848;2022-08-27T13:55:05;7.35;;;5.18;;
40837;SDS011;29632;49.168;9.848;2022-08-27T13:57:42;6.55;;;4.85;;
40837;SDS011;29632;49.168;9.848;2022-08-27T14:00:44;6.88;;;5.07;;
40837;SDS011;29632;49.168;9.848;2022-08-27T14:03:19;7.53;;;5.38;;
40837;SDS011;29632;49.168;9.848;2022-08-27T14:05:54;8.38;;;5.55;;
40837;SDS011;29632;49.168;9.848;2022-08-27T14:08:20;7.35;;;5.18;;
40837;SDS011;29632;49.168;9.848;2022-08-27T14:10:49;7.25;;;5.55;;
40837;SDS011;29632;49.168;9.848;2022-08-27T14:13:44;6.00;;;4.60;;
40837;SDS011;29632;49.168;9.848;2022-08-27T14:16:21;8.15;;;5.07;;
40837;SDS011;29632;49.168;9.848;2022-08-27T14:18:54;6.43;;;5.03;;
40837;SDS011;29632;49.168;9.848;2022-08-27T14:21:48;7.20;;;4.85;;
40837;SDS011;29632;49.168;9.848;2022-08-27T14:24:14;8.38;;;4.88;;
40837;SDS011;29632;49.168;9.848;2022-08-27T14:26:40;8.82;;;5.25;;
40837;SDS011;29632;49.168;9.848;2022-08-27T14:29:05;7.68;;;5.25;;
40837;SDS011;29632;49.168;9.848;2022-08-27T14:31:31;6.72;;;5.03;;
40837;SDS011;29632;49.168;9.848;2022-08-27T14:33:57;8.27;;;5.30;;
40837;SDS011;29632;49.168;9.848;2022-08-27T14:36:23;11.18;;;5.93;;
40837;SDS011;29632;49.168;9.848;2022-08-27T14:38:51;7.90;;;5.97;;
40837;SDS011;29632;49.168;9.848;2022-08-27T14:41:18;8.80;;;5.75;;
40837;SDS011;29632;49.168;9.848;2022-08-27T14:43:44;13.13;;;6.43;;
40837;SDS011;29632;49.168;9.848;2022-08-27T14:46:13;10.18;;;6.50;;
40837;SDS011;29632;49.168;9.848;2022-08-27T14:48:48;10.77;;;8.45;;
40837;SDS011;29632;49.168;9.848;2022-08-27T14:51:15;10.93;;;7.00;;
40837;SDS011;29632;49.168;9.848;2022-08-27T14:53:53;8.85;;;6.70;;
40837;SDS011;29632;49.168;9.848;2022-08-27T14:56:21;11.15;;;6.95;;
40837;SDS011;29632;49.168;9.848;2022-08-27T14:58:48;9.00;;;7.03;;
40837;SDS011;29632;49.168;9.848;2022-08-27T15:01:15;10.65;;;7.50;;
40837;SDS011;29632;49.168;9.848;2022-08-27T15:03:45;8.27;;;6.80;;
40837;SDS011;29632;49.168;9.848;2022-08-27T15:06:13;11.23;;;7.47;;
40837;SDS011;29632;49.168;9.848;2022-08-27T15:08:41;9.52;;;7.22;;
40837;SDS011;29632;49.168;9.848;2022-08-27T15:11:11;11.23;;;7.40;;
40837;SDS011;29632;49.168;9.848;2022-08-27T15:13:45;8.27;;;7.00;;
40837;SDS011;29632;49.168;9.848;2022-08-27T15:16:13;10.07;;;7.18;;
40837;SDS011;29632;49.168;9.848;2022-08-27T15:18:49;8.95;;;6.93;;
40837;SDS011;29632;49.168;9.848;2022-08-27T15:21:15;9.82;;;6.85;;
40837;SDS011;29632;49.168;9.848;2022-08-27T15:23:41;10.27;;;7.15;;
40837;SDS011;29632;49.168;9.848;2022-08-27T15:26:11;10.73;;;6.65;;
40837;SDS011;29632;49.168;9.848;2022-08-27T15:28:37;9.55;;;6.78;;
40837;SDS011;29632;49.168;9.848;2022-08-27T15:31:03;10.10;;;6.95;;
40837;SDS011;29632;49.168;9.848;2022-08-27T15:33:29;11.13;;;6.55;;
40837;SDS011;29632;49.168;9.848;2022-08-27T15:35:55;9.38;;;7.25;;
40837;SDS011;29632;49.168;9.848;2022-08-27T15:38:21;9.00;;;6.43;;
40837;SDS011;29632;49.168;9.848;2022-08-27T15:40:47;9.38;;;7.10;;
40837;SDS011;29632;49.168;9.848;2022-08-27T15:43:13;11.13;;;6.85;;
40837;SDS011;29632;49.168;9.848;2022-08-27T15:45:40;11.07;;;6.22;;
40837;SDS011;29632;49.168;9.848;2022-08-27T15:48:06;7.70;;;6.13;;
40837;SDS011;29632;49.168;9.848;2022-08-27T15:50:32;7.85;;;5.93;;
40837;SDS011;29632;49.168;9.848;2022-08-27T15:53:03;9.07;;;5.57;;
40837;SDS011;29632;49.168;9.848;2022-08-27T15:55:33;8.02;;;6.35;;
40837;SDS011;29632;49.168;9.848;2022-08-27T15:58:02;8.70;;;6.22;;
40837;SDS011;29632;49.168;9.848;2022-08-27T16:00:29;7.22;;;6.03;;
40837;SDS011;29632;49.168;9.848;2022-08-27T16:02:57;11.93;;;6.05;;
40837;SDS011;29632;49.168;9.848;2022-08-27T16:05:26;8.75;;;5.90;;
40837;SDS011;29632;49.168;9.848;2022-08-27T16:07:56;9.18;;;5.65;;
40837;SDS011;29632;49.168;9.848;2022-08-27T16:10:21;11.70;;;6.10;;
40837;SDS011;29632;49.168;9.848;2022-08-27T16:12:47;6.88;;;5.82;;
40837;SDS011;29632;49.168;9.848;2022-08-27T16:15:13;7.60;;;5.72;;
40837;SDS011;29632;49.168;9.848;2022-08-27T16:17:39;8.50;;;5.68;;
40837;SDS011;29632;49.168;9.848;2022-08-27T16:20:07;11.00;;;6.57;;
40837;SDS011;29632;49.168;9.848;2022-08-27T16:22:35;13.20;;;7.10;;
40837;SDS011;29632;49.168;9.848;2022-08-27T16:25:02;13.20;;;5.75;;
40837;SDS011;29632;49.168;9.848;2022-08-27T16:27:30;7.47;;;4.57;;
40837;SDS011;29632;49.168;9.848;2022-08-27T16:29:57;7.65;;;4.15;;
40837;SDS011;29632;49.168;9.848;2022-08-27T16:32:23;8.82;;;4.82;;
40837;SDS011;29632;49.168;9.848;2022-08-27T16:34:53;10.02;;;5.55;;
40837;SDS011;29632;49.168;9.848;2022-08-27T16:37:19;10.43;;;6.07;;
40837;SDS011;29632;49.168;9.848;2022-08-27T16:39:45;9.20;;;6.28;;
40837;SDS011;29632;49.168;9.848;2022-08-27T16:42:10;9.05;;;5.32;;
40837;SDS011;29632;49.168;9.848;2022-08-27T16:44:36;9.77;;;5.50;;